sensor_id;sensor_type;location;lat;lon;timestamp;temperature;humidity
62581;DHT22;48640;48.770;9.148;2023-04-03T00:01:08;5.40;90.30
62581;DHT22;48640;48.770;9.148;2023-04-03T00:03:35;5.30;90.80
62581;DHT22;48640;48.770;9.148;2023-04-03T00:06:03;4.60;91.10
62581;DHT22;48640;48.770;9.148;2023-04-03T00:08:33;5.20;91.20
62581;DHT22;48640;48.770;9.148;2023-04-03T00:11:00;4.80;90.80
62581;DHT22;48640;48.770;9.148;2023-04-03T00:13:27;4.90;91.20
62581;DHT22;48640;48.770;9.148;2023-04-03T00:15:54;4.80;91.10
62581;DHT22;48640;48.770;9.148;2023-04-03T00:18:21;4.80;91.20
62581;DHT22;48640;48.770;9.148;2023-04-03T00:20:48;4.90;91.40
62581;DHT22;48640;48.770;9.148;2023-04-03T00:23:15;4.70;91.40
62581;DHT22;48640;48.770;9.148;2023-04-03T00:25:43;4.90;92.00
62581;DHT22;48640;48.770;9.148;2023-04-03T00:28:10;5.50;91.80
62581;DHT22;48640;48.770;9.148;2023-04-03T00:30:37;5.50;91.50
62581;DHT22;48640;48.770;9.148;2023-04-03T00:33:04;5.50;91.20
62581;DHT22;48640;48.770;9.148;2023-04-03T00:35:30;4.90;91.30
62581;DHT22;48640;48.770;9.148;2023-04-03T00:37:57;5.00;91.70
62581;DHT22;48640;48.770;9.148;2023-04-03T00:40:25;5.10;90.90
62581;DHT22;48640;48.770;9.148;2023-04-03T00:42:57;5.10;90.80
62581;DHT22;48640;48.770;9.148;2023-04-03T00:45:34;5.10;90.50
62581;DHT22;48640;48.770;9.148;2023-04-03T00:48:04;5.60;90.90
62581;DHT22;48640;48.770;9.148;2023-04-03T00:50:33;5.60;90.70
62581;DHT22;48640;48.770;9.148;2023-04-03T00:53:02;5.10;90.50
62581;DHT22;48640;48.770;9.148;2023-04-03T00:55:30;5.30;90.70
62581;DHT22;48640;48.770;9.148;2023-04-03T00:57:59;5.40;90.60
62581;DHT22;48640;48.770;9.148;2023-04-03T01:00:26;5.40;90.80
62581;DHT22;48640;48.770;9.148;2023-04-03T01:02:53;5.20;90.40
62581;DHT22;48640;48.770;9.148;2023-04-03T01:05:21;5.50;90.50
62581;DHT22;48640;48.770;9.148;2023-04-03T01:07:49;5.10;90.90
62581;DHT22;48640;48.770;9.148;2023-04-03T01:10:17;5.00;90.80
62581;DHT22;48640;48.770;9.148;2023-04-03T01:12:46;4.80;90.60
62581;DHT22;48640;48.770;9.148;2023-04-03T01:15:17;5.00;90.30
62581;DHT22;48640;48.770;9.148;2023-04-03T01:17:46;5.00;90.40
62581;DHT22;48640;48.770;9.148;2023-04-03T01:20:36;5.00;90.50
62581;DHT22;48640;48.770;9.148;2023-04-03T01:23:30;5.00;90.50
62581;DHT22;48640;48.770;9.148;2023-04-03T01:25:59;5.20;90.90
62581;DHT22;48640;48.770;9.148;2023-04-03T01:28:28;4.80;90.60
62581;DHT22;48640;48.770;9.148;2023-04-03T01:31:02;4.80;90.70
62581;DHT22;48640;48.770;9.148;2023-04-03T01:33:33;5.00;91.30
62581;DHT22;48640;48.770;9.148;2023-04-03T01:36:00;5.40;91.60
62581;DHT22;48640;48.770;9.148;2023-04-03T01:38:27;4.80;91.40
62581;DHT22;48640;48.770;9.148;2023-04-03T01:40:54;4.80;90.90
62581;DHT22;48640;48.770;9.148;2023-04-03T01:43:21;4.70;90.90
62581;DHT22;48640;48.770;9.148;2023-04-03T01:45:48;4.60;91.40
62581;DHT22;48640;48.770;9.148;2023-04-03T01:48:16;4.90;91.70
62581;DHT22;48640;48.770;9.148;2023-04-03T01:50:44;4.90;90.90
62581;DHT22;48640;48.770;9.148;2023-04-03T01:53:11;4.70;91.10
62581;DHT22;48640;48.770;9.148;2023-04-03T01:55:38;5.20;91.50
62581;DHT22;48640;48.770;9.148;2023-04-03T01:58:04;4.70;91.50
62581;DHT22;48640;48.770;9.148;2023-04-03T02:00:31;4.70;91.50
62581;DHT22;48640;48.770;9.148;2023-04-03T02:02:58;4.70;91.70
62581;DHT22;48640;48.770;9.148;2023-04-03T02:05:25;4.60;91.70
62581;DHT22;48640;48.770;9.148;2023-04-03T02:07:53;4.60;91.70
62581;DHT22;48640;48.770;9.148;2023-04-03T02:10:20;5.20;91.80
62581;DHT22;48640;48.770;9.148;2023-04-03T02:12:47;5.10;91.80
62581;DHT22;48640;48.770;9.148;2023-04-03T02:15:13;5.20;91.60
62581;DHT22;48640;48.770;9.148;2023-04-03T02:17:40;5.20;91.10
62581;DHT22;48640;48.770;9.148;2023-04-03T02:20:08;5.20;91.20
62581;DHT22;48640;48.770;9.148;2023-04-03T02:22:35;4.70;91.00
62581;DHT22;48640;48.770;9.148;2023-04-03T02:25:03;4.80;90.90
62581;DHT22;48640;48.770;9.148;2023-04-03T02:27:30;5.40;91.10
62581;DHT22;48640;48.770;9.148;2023-04-03T02:29:57;4.90;90.80
62581;DHT22;48640;48.770;9.148;2023-04-03T02:32:24;5.00;90.40
62581;DHT22;48640;48.770;9.148;2023-04-03T02:34:51;4.70;90.40
62581;DHT22;48640;48.770;9.148;2023-04-03T02:37:17;4.90;90.70
62581;DHT22;48640;48.770;9.148;2023-04-03T02:39:44;5.00;89.50
62581;DHT22;48640;48.770;9.148;2023-04-03T02:42:12;4.60;89.40
62581;DHT22;48640;48.770;9.148;2023-04-03T02:44:39;4.80;90.00
62581;DHT22;48640;48.770;9.148;2023-04-03T02:47:06;4.80;90.00
62581;DHT22;48640;48.770;9.148;2023-04-03T02:49:32;4.70;89.00
62581;DHT22;48640;48.770;9.148;2023-04-03T02:51:59;4.40;89.10
62581;DHT22;48640;48.770;9.148;2023-04-03T02:54:26;4.70;88.60
62581;DHT22;48640;48.770;9.148;2023-04-03T02:56:56;4.50;88.00
62581;DHT22;48640;48.770;9.148;2023-04-03T02:59:24;4.70;89.30
62581;DHT22;48640;48.770;9.148;2023-04-03T03:01:51;4.80;87.90
62581;DHT22;48640;48.770;9.148;2023-04-03T03:04:18;4.50;87.80
62581;DHT22;48640;48.770;9.148;2023-04-03T03:06:45;5.10;89.00
62581;DHT22;48640;48.770;9.148;2023-04-03T03:09:14;4.50;88.30
62581;DHT22;48640;48.770;9.148;2023-04-03T03:11:41;4.70;88.00
62581;DHT22;48640;48.770;9.148;2023-04-03T03:14:08;4.80;87.90
62581;DHT22;48640;48.770;9.148;2023-04-03T03:16:36;4.70;89.00
62581;DHT22;48640;48.770;9.148;2023-04-03T03:19:03;4.10;89.50
62581;DHT22;48640;48.770;9.148;2023-04-03T03:21:30;4.40;89.90
62581;DHT22;48640;48.770;9.148;2023-04-03T03:23:56;4.40;89.20
62581;DHT22;48640;48.770;9.148;2023-04-03T03:26:23;4.50;88.20
62581;DHT22;48640;48.770;9.148;2023-04-03T03:28:50;4.50;88.70
62581;DHT22;48640;48.770;9.148;2023-04-03T03:31:17;4.20;89.40
62581;DHT22;48640;48.770;9.148;2023-04-03T03:33:45;4.20;88.80
62581;DHT22;48640;48.770;9.148;2023-04-03T03:36:12;4.20;88.90
62581;DHT22;48640;48.770;9.148;2023-04-03T03:38:39;4.00;89.80
62581;DHT22;48640;48.770;9.148;2023-04-03T03:41:06;4.00;88.50
62581;DHT22;48640;48.770;9.148;2023-04-03T03:43:32;4.40;89.20
62581;DHT22;48640;48.770;9.148;2023-04-03T03:45:59;4.70;90.10
62581;DHT22;48640;48.770;9.148;2023-04-03T03:48:26;4.70;90.20
62581;DHT22;48640;48.770;9.148;2023-04-03T03:50:54;4.70;90.00
62581;DHT22;48640;48.770;9.148;2023-04-03T03:53:21;4.20;89.00
62581;DHT22;48640;48.770;9.148;2023-04-03T03:55:47;4.60;90.10
62581;DHT22;48640;48.770;9.148;2023-04-03T03:58:14;4.30;89.60
62581;DHT22;48640;48.770;9.148;2023-04-03T04:00:41;4.40;89.80
62581;DHT22;48640;48.770;9.148;2023-04-03T04:03:08;4.80;89.90
62581;DHT22;48640;48.770;9.148;2023-04-03T04:05:35;4.40;89.10
62581;DHT22;48640;48.770;9.148;2023-04-03T04:08:03;4.80;88.70
62581;DHT22;48640;48.770;9.148;2023-04-03T04:10:30;5.00;87.80
62581;DHT22;48640;48.770;9.148;2023-04-03T04:12:56;4.90;87.40
62581;DHT22;48640;48.770;9.148;2023-04-03T04:15:23;4.80;87.60
62581;DHT22;48640;48.770;9.148;2023-04-03T04:17:51;4.20;86.70
62581;DHT22;48640;48.770;9.148;2023-04-03T04:20:18;4.90;87.30
62581;DHT22;48640;48.770;9.148;2023-04-03T04:22:45;4.80;86.40
62581;DHT22;48640;48.770;9.148;2023-04-03T04:25:13;4.20;85.80
62581;DHT22;48640;48.770;9.148;2023-04-03T04:27:40;4.20;86.10
62581;DHT22;48640;48.770;9.148;2023-04-03T04:30:11;5.00;87.40
62581;DHT22;48640;48.770;9.148;2023-04-03T04:32:38;4.60;86.60
62581;DHT22;48640;48.770;9.148;2023-04-03T04:35:05;4.70;86.80
62581;DHT22;48640;48.770;9.148;2023-04-03T04:37:32;4.70;86.00
62581;DHT22;48640;48.770;9.148;2023-04-03T04:39:59;4.40;85.30
62581;DHT22;48640;48.770;9.148;2023-04-03T04:42:27;4.20;84.80
62581;DHT22;48640;48.770;9.148;2023-04-03T04:44:54;4.20;84.70
62581;DHT22;48640;48.770;9.148;2023-04-03T04:47:20;4.30;85.50
62581;DHT22;48640;48.770;9.148;2023-04-03T04:49:47;4.70;84.90
62581;DHT22;48640;48.770;9.148;2023-04-03T04:52:14;4.10;85.00
62581;DHT22;48640;48.770;9.148;2023-04-03T04:54:41;4.70;86.10
62581;DHT22;48640;48.770;9.148;2023-04-03T04:57:08;4.90;84.20
62581;DHT22;48640;48.770;9.148;2023-04-03T04:59:37;4.50;83.90
62581;DHT22;48640;48.770;9.148;2023-04-03T05:02:03;4.70;84.00
62581;DHT22;48640;48.770;9.148;2023-04-03T05:04:30;4.90;83.90
62581;DHT22;48640;48.770;9.148;2023-04-03T05:06:58;4.90;84.30
62581;DHT22;48640;48.770;9.148;2023-04-03T05:09:25;4.60;82.50
62581;DHT22;48640;48.770;9.148;2023-04-03T05:11:52;5.10;82.60
62581;DHT22;48640;48.770;9.148;2023-04-03T05:14:19;5.10;82.10
62581;DHT22;48640;48.770;9.148;2023-04-03T05:16:47;4.50;81.70
62581;DHT22;48640;48.770;9.148;2023-04-03T05:19:18;4.40;80.80
62581;DHT22;48640;48.770;9.148;2023-04-03T05:21:45;4.50;81.10
62581;DHT22;48640;48.770;9.148;2023-04-03T05:24:11;4.70;81.20
62581;DHT22;48640;48.770;9.148;2023-04-03T05:26:38;5.10;81.10
62581;DHT22;48640;48.770;9.148;2023-04-03T05:29:05;4.90;81.00
62581;DHT22;48640;48.770;9.148;2023-04-03T05:31:32;4.90;81.40
62581;DHT22;48640;48.770;9.148;2023-04-03T05:34:01;5.10;80.90
62581;DHT22;48640;48.770;9.148;2023-04-03T05:36:28;5.00;80.80
62581;DHT22;48640;48.770;9.148;2023-04-03T05:38:55;5.00;81.70
62581;DHT22;48640;48.770;9.148;2023-04-03T05:41:23;4.70;80.10
62581;DHT22;48640;48.770;9.148;2023-04-03T05:43:50;5.10;80.60
62581;DHT22;48640;48.770;9.148;2023-04-03T05:46:18;5.20;81.50
62581;DHT22;48640;48.770;9.148;2023-04-03T05:48:46;5.30;81.20
62581;DHT22;48640;48.770;9.148;2023-04-03T05:51:16;5.10;80.90
62581;DHT22;48640;48.770;9.148;2023-04-03T05:53:44;5.80;80.80
62581;DHT22;48640;48.770;9.148;2023-04-03T05:56:12;5.20;79.40
62581;DHT22;48640;48.770;9.148;2023-04-03T05:58:38;5.20;80.10
62581;DHT22;48640;48.770;9.148;2023-04-03T06:01:06;4.70;80.10
62581;DHT22;48640;48.770;9.148;2023-04-03T06:03:33;4.50;80.50
62581;DHT22;48640;48.770;9.148;2023-04-03T06:06:02;4.80;82.10
62581;DHT22;48640;48.770;9.148;2023-04-03T06:08:31;5.10;82.10
62581;DHT22;48640;48.770;9.148;2023-04-03T06:10:58;5.30;81.70
62581;DHT22;48640;48.770;9.148;2023-04-03T06:13:25;5.30;80.40
62581;DHT22;48640;48.770;9.148;2023-04-03T06:15:51;5.50;81.20
62581;DHT22;48640;48.770;9.148;2023-04-03T06:18:18;4.90;80.30
62581;DHT22;48640;48.770;9.148;2023-04-03T06:20:46;5.10;79.80
62581;DHT22;48640;48.770;9.148;2023-04-03T06:23:12;5.50;79.80
62581;DHT22;48640;48.770;9.148;2023-04-03T06:25:40;5.10;79.60
62581;DHT22;48640;48.770;9.148;2023-04-03T06:28:08;5.30;79.30
62581;DHT22;48640;48.770;9.148;2023-04-03T06:30:35;5.40;78.00
62581;DHT22;48640;48.770;9.148;2023-04-03T06:33:02;5.30;78.50
62581;DHT22;48640;48.770;9.148;2023-04-03T06:35:29;5.20;79.80
62581;DHT22;48640;48.770;9.148;2023-04-03T06:37:56;4.80;79.60
62581;DHT22;48640;48.770;9.148;2023-04-03T06:40:24;5.30;81.10
62581;DHT22;48640;48.770;9.148;2023-04-03T06:42:53;4.90;80.40
62581;DHT22;48640;48.770;9.148;2023-04-03T06:45:19;5.20;81.60
62581;DHT22;48640;48.770;9.148;2023-04-03T06:47:47;5.20;80.00
62581;DHT22;48640;48.770;9.148;2023-04-03T06:50:13;5.20;79.50
62581;DHT22;48640;48.770;9.148;2023-04-03T06:52:41;5.30;80.10
62581;DHT22;48640;48.770;9.148;2023-04-03T06:55:09;5.30;78.70
62581;DHT22;48640;48.770;9.148;2023-04-03T06:57:37;5.40;79.80
62581;DHT22;48640;48.770;9.148;2023-04-03T07:00:06;5.00;79.50
62581;DHT22;48640;48.770;9.148;2023-04-03T07:02:34;5.50;81.30
62581;DHT22;48640;48.770;9.148;2023-04-03T07:05:01;5.20;81.00
62581;DHT22;48640;48.770;9.148;2023-04-03T07:07:29;5.10;80.80
62581;DHT22;48640;48.770;9.148;2023-04-03T07:09:56;5.30;81.20
62581;DHT22;48640;48.770;9.148;2023-04-03T07:12:22;5.70;80.90
62581;DHT22;48640;48.770;9.148;2023-04-03T07:14:50;5.20;80.90
62581;DHT22;48640;48.770;9.148;2023-04-03T07:17:18;5.10;80.30
62581;DHT22;48640;48.770;9.148;2023-04-03T07:19:45;5.60;81.50
62581;DHT22;48640;48.770;9.148;2023-04-03T07:22:12;5.80;80.80
62581;DHT22;48640;48.770;9.148;2023-04-03T07:24:39;6.00;81.70
62581;DHT22;48640;48.770;9.148;2023-04-03T07:27:06;5.50;80.40
62581;DHT22;48640;48.770;9.148;2023-04-03T07:29:34;5.90;79.20
62581;DHT22;48640;48.770;9.148;2023-04-03T07:32:01;5.10;80.60
62581;DHT22;48640;48.770;9.148;2023-04-03T07:34:29;5.00;80.80
62581;DHT22;48640;48.770;9.148;2023-04-03T07:36:57;5.90;83.60
62581;DHT22;48640;48.770;9.148;2023-04-03T07:39:24;5.70;82.40
62581;DHT22;48640;48.770;9.148;2023-04-03T07:41:51;5.80;82.60
62581;DHT22;48640;48.770;9.148;2023-04-03T07:44:18;5.80;81.50
62581;DHT22;48640;48.770;9.148;2023-04-03T07:46:45;6.20;78.40
62581;DHT22;48640;48.770;9.148;2023-04-03T07:49:12;6.40;77.20
62581;DHT22;48640;48.770;9.148;2023-04-03T07:51:40;6.80;76.90
62581;DHT22;48640;48.770;9.148;2023-04-03T07:54:07;6.60;78.20
62581;DHT22;48640;48.770;9.148;2023-04-03T07:56:34;6.80;77.20
62581;DHT22;48640;48.770;9.148;2023-04-03T07:59:00;6.70;77.30
62581;DHT22;48640;48.770;9.148;2023-04-03T08:01:27;6.60;77.40
62581;DHT22;48640;48.770;9.148;2023-04-03T08:03:57;6.40;76.60
62581;DHT22;48640;48.770;9.148;2023-04-03T08:06:24;6.60;77.40
62581;DHT22;48640;48.770;9.148;2023-04-03T08:08:52;6.90;76.50
62581;DHT22;48640;48.770;9.148;2023-04-03T08:11:19;6.80;76.90
62581;DHT22;48640;48.770;9.148;2023-04-03T08:13:46;7.00;76.60
62581;DHT22;48640;48.770;9.148;2023-04-03T08:16:17;7.00;75.90
62581;DHT22;48640;48.770;9.148;2023-04-03T08:18:44;7.00;77.50
62581;DHT22;48640;48.770;9.148;2023-04-03T08:21:12;6.80;77.60
62581;DHT22;48640;48.770;9.148;2023-04-03T08:23:40;7.20;76.90
62581;DHT22;48640;48.770;9.148;2023-04-03T08:26:10;7.20;76.60
62581;DHT22;48640;48.770;9.148;2023-04-03T08:28:37;7.50;76.30
62581;DHT22;48640;48.770;9.148;2023-04-03T08:31:05;7.40;77.40
62581;DHT22;48640;48.770;9.148;2023-04-03T08:33:33;7.80;76.40
62581;DHT22;48640;48.770;9.148;2023-04-03T08:36:01;6.90;75.80
62581;DHT22;48640;48.770;9.148;2023-04-03T08:38:28;7.10;75.30
62581;DHT22;48640;48.770;9.148;2023-04-03T08:41:04;7.20;74.80
62581;DHT22;48640;48.770;9.148;2023-04-03T08:43:41;7.20;74.30
62581;DHT22;48640;48.770;9.148;2023-04-03T08:46:12;6.90;75.00
62581;DHT22;48640;48.770;9.148;2023-04-03T08:48:42;6.90;74.50
62581;DHT22;48640;48.770;9.148;2023-04-03T08:51:13;7.40;75.80
62581;DHT22;48640;48.770;9.148;2023-04-03T08:53:44;7.30;75.10
62581;DHT22;48640;48.770;9.148;2023-04-03T08:56:14;7.20;75.40
62581;DHT22;48640;48.770;9.148;2023-04-03T08:58:48;7.20;76.10
62581;DHT22;48640;48.770;9.148;2023-04-03T09:01:21;7.00;76.40
62581;DHT22;48640;48.770;9.148;2023-04-03T09:03:49;7.10;75.70
62581;DHT22;48640;48.770;9.148;2023-04-03T09:06:20;7.10;74.10
62581;DHT22;48640;48.770;9.148;2023-04-03T09:08:51;7.30;75.60
62581;DHT22;48640;48.770;9.148;2023-04-03T09:11:24;7.30;75.30
62581;DHT22;48640;48.770;9.148;2023-04-03T09:13:58;6.90;73.30
62581;DHT22;48640;48.770;9.148;2023-04-03T09:16:36;7.10;75.90
62581;DHT22;48640;48.770;9.148;2023-04-03T09:19:13;7.20;78.00
62581;DHT22;48640;48.770;9.148;2023-04-03T09:21:41;7.40;74.80
62581;DHT22;48640;48.770;9.148;2023-04-03T09:24:12;7.10;73.90
62581;DHT22;48640;48.770;9.148;2023-04-03T09:26:43;7.10;73.90
62581;DHT22;48640;48.770;9.148;2023-04-03T09:29:17;7.10;73.00
62581;DHT22;48640;48.770;9.148;2023-04-03T09:31:48;7.70;72.00
62581;DHT22;48640;48.770;9.148;2023-04-03T09:34:19;6.80;73.60
62581;DHT22;48640;48.770;9.148;2023-04-03T09:36:49;7.10;74.70
62581;DHT22;48640;48.770;9.148;2023-04-03T09:39:18;7.20;75.20
62581;DHT22;48640;48.770;9.148;2023-04-03T09:41:59;7.10;73.60
62581;DHT22;48640;48.770;9.148;2023-04-03T09:44:29;7.50;74.90
62581;DHT22;48640;48.770;9.148;2023-04-03T09:46:56;7.50;74.10
62581;DHT22;48640;48.770;9.148;2023-04-03T09:49:23;7.60;74.10
62581;DHT22;48640;48.770;9.148;2023-04-03T09:51:50;7.40;72.70
62581;DHT22;48640;48.770;9.148;2023-04-03T09:54:35;7.30;72.90
62581;DHT22;48640;48.770;9.148;2023-04-03T09:57:09;7.10;72.00
62581;DHT22;48640;48.770;9.148;2023-04-03T09:59:46;7.10;72.70
62581;DHT22;48640;48.770;9.148;2023-04-03T10:02:32;7.20;72.60
62581;DHT22;48640;48.770;9.148;2023-04-03T10:04:59;6.60;70.50
62581;DHT22;48640;48.770;9.148;2023-04-03T10:07:32;6.90;72.60
62581;DHT22;48640;48.770;9.148;2023-04-03T10:10:01;7.10;73.70
62581;DHT22;48640;48.770;9.148;2023-04-03T10:12:41;6.90;73.60
62581;DHT22;48640;48.770;9.148;2023-04-03T10:15:15;6.70;73.20
62581;DHT22;48640;48.770;9.148;2023-04-03T10:17:51;6.80;73.30
62581;DHT22;48640;48.770;9.148;2023-04-03T10:20:27;6.80;73.20
62581;DHT22;48640;48.770;9.148;2023-04-03T10:23:02;7.00;73.30
62581;DHT22;48640;48.770;9.148;2023-04-03T10:25:35;6.80;73.40
62581;DHT22;48640;48.770;9.148;2023-04-03T10:28:10;6.90;74.20
62581;DHT22;48640;48.770;9.148;2023-04-03T10:30:48;7.30;70.50
62581;DHT22;48640;48.770;9.148;2023-04-03T10:33:31;7.10;71.20
62581;DHT22;48640;48.770;9.148;2023-04-03T10:36:10;7.70;69.70
62581;DHT22;48640;48.770;9.148;2023-04-03T10:38:46;7.90;71.10
62581;DHT22;48640;48.770;9.148;2023-04-03T10:41:19;7.40;68.60
62581;DHT22;48640;48.770;9.148;2023-04-03T10:43:55;7.80;67.50
62581;DHT22;48640;48.770;9.148;2023-04-03T10:46:30;7.80;67.40
62581;DHT22;48640;48.770;9.148;2023-04-03T10:49:13;7.80;67.10
62581;DHT22;48640;48.770;9.148;2023-04-03T10:51:43;8.20;67.60
62581;DHT22;48640;48.770;9.148;2023-04-03T10:54:12;7.40;67.30
62581;DHT22;48640;48.770;9.148;2023-04-03T10:56:42;7.50;68.20
62581;DHT22;48640;48.770;9.148;2023-04-03T10:59:20;7.50;67.80
62581;DHT22;48640;48.770;9.148;2023-04-03T11:01:53;6.90;66.00
62581;DHT22;48640;48.770;9.148;2023-04-03T11:04:22;6.90;70.00
62581;DHT22;48640;48.770;9.148;2023-04-03T11:06:56;7.20;69.00
62581;DHT22;48640;48.770;9.148;2023-04-03T11:09:27;7.20;68.20
62581;DHT22;48640;48.770;9.148;2023-04-03T11:11:58;7.30;67.10
62581;DHT22;48640;48.770;9.148;2023-04-03T11:14:28;7.50;65.50
62581;DHT22;48640;48.770;9.148;2023-04-03T11:17:05;7.30;66.00
62581;DHT22;48640;48.770;9.148;2023-04-03T11:19:38;7.80;65.30
62581;DHT22;48640;48.770;9.148;2023-04-03T11:22:12;6.90;65.30
62581;DHT22;48640;48.770;9.148;2023-04-03T11:24:43;7.10;63.90
62581;DHT22;48640;48.770;9.148;2023-04-03T11:27:17;6.80;64.10
62581;DHT22;48640;48.770;9.148;2023-04-03T11:29:48;7.30;64.90
62581;DHT22;48640;48.770;9.148;2023-04-03T11:32:34;7.50;64.00
62581;DHT22;48640;48.770;9.148;2023-04-03T11:35:05;7.10;61.50
62581;DHT22;48640;48.770;9.148;2023-04-03T11:37:36;7.00;62.10
62581;DHT22;48640;48.770;9.148;2023-04-03T11:40:06;7.20;63.40
62581;DHT22;48640;48.770;9.148;2023-04-03T11:42:38;7.40;63.50
62581;DHT22;48640;48.770;9.148;2023-04-03T11:45:34;7.20;63.30
62581;DHT22;48640;48.770;9.148;2023-04-03T11:48:05;6.90;65.20
62581;DHT22;48640;48.770;9.148;2023-04-03T11:50:42;7.30;65.50
62581;DHT22;48640;48.770;9.148;2023-04-03T11:53:31;7.20;64.40
62581;DHT22;48640;48.770;9.148;2023-04-03T11:56:04;7.50;63.70
62581;DHT22;48640;48.770;9.148;2023-04-03T11:58:32;7.00;63.40
62581;DHT22;48640;48.770;9.148;2023-04-03T12:01:03;7.30;62.80
62581;DHT22;48640;48.770;9.148;2023-04-03T12:10:13;7.50;60.70
62581;DHT22;48640;48.770;9.148;2023-04-03T12:12:41;7.60;59.60
62581;DHT22;48640;48.770;9.148;2023-04-03T12:21:14;7.30;62.80
62581;DHT22;48640;48.770;9.148;2023-04-03T12:23:59;7.30;63.80
62581;DHT22;48640;48.770;9.148;2023-04-03T12:26:32;7.60;61.50
62581;DHT22;48640;48.770;9.148;2023-04-03T12:29:04;7.10;61.30
62581;DHT22;48640;48.770;9.148;2023-04-03T12:31:42;7.20;62.00
62581;DHT22;48640;48.770;9.148;2023-04-03T12:34:23;7.30;61.20
62581;DHT22;48640;48.770;9.148;2023-04-03T12:36:59;8.00;61.40
62581;DHT22;48640;48.770;9.148;2023-04-03T12:39:41;7.30;60.10
62581;DHT22;48640;48.770;9.148;2023-04-03T12:42:39;7.80;59.70
62581;DHT22;48640;48.770;9.148;2023-04-03T12:45:16;8.00;59.50
62581;DHT22;48640;48.770;9.148;2023-04-03T12:47:44;7.30;59.10
62581;DHT22;48640;48.770;9.148;2023-04-03T12:50:21;7.10;59.80
62581;DHT22;48640;48.770;9.148;2023-04-03T12:52:54;7.00;60.80
62581;DHT22;48640;48.770;9.148;2023-04-03T12:55:23;7.00;58.60
62581;DHT22;48640;48.770;9.148;2023-04-03T12:57:51;7.50;59.50
62581;DHT22;48640;48.770;9.148;2023-04-03T13:00:28;7.20;59.20
62581;DHT22;48640;48.770;9.148;2023-04-03T13:02:55;7.80;59.00
62581;DHT22;48640;48.770;9.148;2023-04-03T13:05:23;7.80;59.40
62581;DHT22;48640;48.770;9.148;2023-04-03T13:07:53;7.10;58.40
62581;DHT22;48640;48.770;9.148;2023-04-03T13:10:22;6.80;59.70
62581;DHT22;48640;48.770;9.148;2023-04-03T13:12:52;7.30;60.90
62581;DHT22;48640;48.770;9.148;2023-04-03T13:15:22;7.70;59.20
62581;DHT22;48640;48.770;9.148;2023-04-03T13:17:50;8.20;57.10
62581;DHT22;48640;48.770;9.148;2023-04-03T13:20:22;8.70;56.60
62581;DHT22;48640;48.770;9.148;2023-04-03T13:22:53;8.60;56.10
62581;DHT22;48640;48.770;9.148;2023-04-03T13:25:24;7.90;54.30
62581;DHT22;48640;48.770;9.148;2023-04-03T13:27:54;8.50;55.20
62581;DHT22;48640;48.770;9.148;2023-04-03T13:30:28;8.40;56.40
62581;DHT22;48640;48.770;9.148;2023-04-03T13:32:56;9.50;56.60
62581;DHT22;48640;48.770;9.148;2023-04-03T13:35:34;9.60;55.60
62581;DHT22;48640;48.770;9.148;2023-04-03T13:38:05;9.00;54.10
62581;DHT22;48640;48.770;9.148;2023-04-03T13:40:32;9.00;55.80
62581;DHT22;48640;48.770;9.148;2023-04-03T13:43:04;8.40;55.00
62581;DHT22;48640;48.770;9.148;2023-04-03T13:45:32;8.80;54.20
62581;DHT22;48640;48.770;9.148;2023-04-03T13:48:16;8.30;54.20
62581;DHT22;48640;48.770;9.148;2023-04-03T13:50:53;9.00;54.60
62581;DHT22;48640;48.770;9.148;2023-04-03T13:53:21;9.40;53.00
62581;DHT22;48640;48.770;9.148;2023-04-03T13:58:37;9.00;52.90
62581;DHT22;48640;48.770;9.148;2023-04-03T14:01:14;8.70;52.80
62581;DHT22;48640;48.770;9.148;2023-04-03T14:03:45;9.40;52.30
62581;DHT22;48640;48.770;9.148;2023-04-03T14:06:15;8.20;51.40
62581;DHT22;48640;48.770;9.148;2023-04-03T14:08:42;8.30;52.40
62581;DHT22;48640;48.770;9.148;2023-04-03T14:11:12;8.50;52.20
62581;DHT22;48640;48.770;9.148;2023-04-03T14:13:41;7.90;52.00
62581;DHT22;48640;48.770;9.148;2023-04-03T14:16:13;8.20;54.40
62581;DHT22;48640;48.770;9.148;2023-04-03T14:18:40;8.90;54.00
62581;DHT22;48640;48.770;9.148;2023-04-03T14:21:10;8.30;53.90
62581;DHT22;48640;48.770;9.148;2023-04-03T14:23:37;8.50;53.00
62581;DHT22;48640;48.770;9.148;2023-04-03T14:26:08;8.20;53.40
62581;DHT22;48640;48.770;9.148;2023-04-03T14:28:35;8.30;53.70
62581;DHT22;48640;48.770;9.148;2023-04-03T14:31:03;8.70;53.30
62581;DHT22;48640;48.770;9.148;2023-04-03T14:33:30;8.40;53.20
62581;DHT22;48640;48.770;9.148;2023-04-03T14:36:00;7.90;52.80
62581;DHT22;48640;48.770;9.148;2023-04-03T14:38:29;7.80;53.60
62581;DHT22;48640;48.770;9.148;2023-04-03T14:40:58;7.80;52.90
62581;DHT22;48640;48.770;9.148;2023-04-03T14:43:24;7.50;53.20
62581;DHT22;48640;48.770;9.148;2023-04-03T14:45:52;7.50;53.50
62581;DHT22;48640;48.770;9.148;2023-04-03T14:48:22;8.10;54.40
62581;DHT22;48640;48.770;9.148;2023-04-03T14:50:50;8.40;54.00
62581;DHT22;48640;48.770;9.148;2023-04-03T14:53:18;8.40;52.40
62581;DHT22;48640;48.770;9.148;2023-04-03T14:55:48;8.90;51.70
62581;DHT22;48640;48.770;9.148;2023-04-03T14:58:16;8.60;51.30
62581;DHT22;48640;48.770;9.148;2023-04-03T15:00:43;9.30;50.80
62581;DHT22;48640;48.770;9.148;2023-04-03T15:03:13;8.70;50.60
62581;DHT22;48640;48.770;9.148;2023-04-03T15:05:42;8.50;51.20
62581;DHT22;48640;48.770;9.148;2023-04-03T15:08:18;8.20;50.50
62581;DHT22;48640;48.770;9.148;2023-04-03T15:10:46;8.00;51.30
62581;DHT22;48640;48.770;9.148;2023-04-03T15:13:13;8.10;52.40
62581;DHT22;48640;48.770;9.148;2023-04-03T15:15:39;8.30;52.10
62581;DHT22;48640;48.770;9.148;2023-04-03T15:18:07;7.90;51.10
62581;DHT22;48640;48.770;9.148;2023-04-03T15:20:37;7.80;51.40
62581;DHT22;48640;48.770;9.148;2023-04-03T15:23:05;7.70;50.80
62581;DHT22;48640;48.770;9.148;2023-04-03T15:25:32;8.00;51.70
62581;DHT22;48640;48.770;9.148;2023-04-03T15:27:59;7.70;50.70
62581;DHT22;48640;48.770;9.148;2023-04-03T15:30:26;7.60;51.10
62581;DHT22;48640;48.770;9.148;2023-04-03T15:32:53;8.10;52.00
62581;DHT22;48640;48.770;9.148;2023-04-03T15:35:21;7.90;50.80
62581;DHT22;48640;48.770;9.148;2023-04-03T15:37:47;8.10;49.70
62581;DHT22;48640;48.770;9.148;2023-04-03T15:40:16;7.60;49.50
62581;DHT22;48640;48.770;9.148;2023-04-03T15:42:43;8.00;50.40
62581;DHT22;48640;48.770;9.148;2023-04-03T15:45:10;7.20;50.00
62581;DHT22;48640;48.770;9.148;2023-04-03T15:47:37;7.20;50.60
62581;DHT22;48640;48.770;9.148;2023-04-03T15:50:05;7.20;51.30
62581;DHT22;48640;48.770;9.148;2023-04-03T15:52:33;7.50;51.20
62581;DHT22;48640;48.770;9.148;2023-04-03T15:55:00;6.90;51.10
62581;DHT22;48640;48.770;9.148;2023-04-03T15:57:28;6.90;51.30
62581;DHT22;48640;48.770;9.148;2023-04-03T15:59:55;7.10;52.30
62581;DHT22;48640;48.770;9.148;2023-04-03T16:02:22;7.10;52.20
62581;DHT22;48640;48.770;9.148;2023-04-03T16:04:49;7.30;51.40
62581;DHT22;48640;48.770;9.148;2023-04-03T16:07:16;7.20;50.80
62581;DHT22;48640;48.770;9.148;2023-04-03T16:09:43;7.80;51.30
62581;DHT22;48640;48.770;9.148;2023-04-03T16:12:10;7.90;50.80
62581;DHT22;48640;48.770;9.148;2023-04-03T16:14:38;7.70;50.70